createdAt,value
2018-06-15T00:00:53.771Z,11.27
2018-06-15T00:03:22.440Z,9.33
2018-06-15T00:05:51.086Z,14.97
2018-06-15T00:08:19.798Z,9.00
2018-06-15T00:10:48.526Z,9.63
2018-06-15T00:13:17.220Z,9.17
2018-06-15T00:15:45.942Z,9.50
2018-06-15T00:18:14.622Z,9.40
2018-06-15T00:20:43.316Z,8.27
2018-06-15T00:23:11.959Z,9.03
2018-06-15T00:25:40.637Z,8.80
2018-06-15T00:28:09.396Z,10.90
2018-06-15T00:30:38.153Z,11.20
2018-06-15T00:36:07.730Z,12.83
2018-06-15T00:38:36.321Z,9.37
2018-06-15T00:41:05.019Z,10.23
2018-06-15T00:43:33.711Z,13.00
2018-06-15T00:46:02.326Z,10.20
2018-06-15T00:48:30.998Z,12.30
2018-06-15T00:50:59.687Z,13.10
2018-06-15T00:53:28.646Z,9.10
2018-06-15T00:55:57.322Z,10.10
2018-06-15T00:58:26.068Z,12.53
2018-06-15T01:00:54.805Z,12.80
2018-06-15T01:03:23.498Z,11.03
2018-06-15T01:05:52.244Z,9.50
2018-06-15T01:08:20.914Z,10.57
2018-06-15T01:10:49.610Z,9.83
2018-06-15T01:13:18.378Z,14.70
2018-06-15T01:15:47.220Z,10.73
2018-06-15T01:18:15.878Z,10.47
2018-06-15T01:20:44.734Z,10.83
2018-06-15T01:23:13.454Z,10.23
2018-06-15T01:25:42.120Z,9.07
2018-06-15T01:28:10.821Z,9.20
2018-06-15T01:30:39.470Z,10.13
2018-06-15T01:33:08.219Z,10.40
2018-06-15T01:35:36.868Z,9.70
2018-06-15T01:38:05.674Z,10.20
2018-06-15T01:40:34.378Z,11.87
2018-06-15T01:43:03.090Z,10.40
2018-06-15T01:45:31.813Z,12.73
2018-06-15T01:48:00.452Z,11.30
2018-06-15T01:50:29.208Z,11.97
2018-06-15T01:52:57.954Z,12.97
2018-06-15T01:55:26.674Z,14.80
2018-06-15T01:57:55.368Z,11.27
2018-06-15T02:00:24.090Z,11.80
2018-06-15T02:02:52.282Z,11.00
2018-06-15T02:05:20.554Z,12.23
2018-06-15T02:07:49.326Z,12.60
2018-06-15T02:10:18.055Z,11.00
2018-06-15T02:12:46.732Z,11.57
2018-06-15T02:15:15.368Z,12.23
2018-06-15T02:17:44.112Z,11.33
2018-06-15T02:20:12.751Z,11.80
2018-06-15T02:22:41.481Z,12.57
2018-06-15T02:25:10.118Z,13.17
2018-06-15T02:27:38.927Z,14.50
2018-06-15T02:30:07.621Z,11.10
2018-06-15T02:32:36.282Z,12.00
2018-06-15T02:35:05.063Z,16.60
2018-06-15T02:37:33.782Z,12.57
2018-06-15T02:40:02.452Z,11.37
2018-06-15T02:42:31.173Z,12.87
2018-06-15T02:44:59.859Z,13.30
2018-06-15T02:47:28.648Z,10.93
2018-06-15T02:49:57.290Z,12.20
2018-06-15T02:52:25.965Z,11.40
2018-06-15T02:54:54.643Z,14.93
2018-06-15T02:57:23.394Z,13.30
2018-06-15T02:59:52.096Z,12.07
2018-06-15T03:02:20.750Z,12.10
2018-06-15T03:04:49.409Z,12.50
2018-06-15T03:07:18.086Z,12.17
2018-06-15T03:09:46.741Z,12.50
2018-06-15T03:12:15.482Z,19.90
2018-06-15T03:14:44.234Z,14.10
2018-06-15T03:17:12.920Z,13.10
2018-06-15T03:19:41.598Z,11.80
2018-06-15T03:22:10.361Z,13.80
2018-06-15T03:24:39.076Z,15.13
2018-06-15T03:27:07.782Z,13.67
2018-06-15T03:29:36.437Z,13.83
2018-06-15T03:32:05.078Z,12.50
2018-06-15T03:34:33.819Z,15.20
2018-06-15T03:37:02.510Z,15.50
2018-06-15T03:39:31.198Z,12.13
2018-06-15T03:41:59.878Z,12.47
2018-06-15T03:44:28.607Z,16.97
2018-06-15T03:46:57.320Z,14.07
2018-06-15T03:49:25.992Z,13.13
2018-06-15T03:51:54.641Z,12.43
2018-06-15T03:54:23.408Z,13.17
2018-06-15T03:56:52.050Z,11.90
2018-06-15T03:59:20.713Z,13.73
2018-06-15T04:01:49.326Z,12.73
2018-06-15T04:04:18.008Z,12.23
2018-06-15T04:06:46.768Z,13.33
2018-06-15T04:09:15.483Z,13.10
2018-06-15T04:11:44.543Z,12.20
2018-06-15T04:14:13.279Z,14.00
2018-06-15T04:38:45.394Z,12.33
2018-06-15T04:41:14.141Z,12.73
2018-06-15T04:43:42.842Z,11.60
2018-06-15T04:46:11.491Z,11.33
2018-06-15T04:48:40.271Z,11.77
2018-06-15T04:51:08.936Z,10.37
2018-06-15T04:53:37.646Z,13.97
2018-06-15T04:56:06.517Z,11.43
2018-06-15T04:58:35.189Z,13.57
2018-06-15T05:01:03.897Z,11.57
2018-06-15T05:03:32.638Z,13.27
2018-06-15T05:06:01.327Z,12.13
2018-06-15T05:08:30.148Z,12.00
2018-06-15T05:10:58.755Z,12.60
2018-06-15T05:13:27.048Z,12.00
2018-06-15T05:15:55.766Z,14.67
2018-06-15T05:18:24.409Z,11.20
2018-06-15T05:20:53.108Z,11.10
2018-06-15T05:23:21.831Z,10.03
2018-06-15T05:25:50.508Z,10.37
2018-06-15T05:28:19.231Z,12.87
2018-06-15T05:30:47.897Z,10.30
2018-06-15T05:33:16.562Z,10.83
2018-06-15T05:35:45.330Z,11.03
2018-06-15T05:38:14.029Z,12.73
2018-06-15T05:40:42.727Z,14.23
2018-06-15T05:43:11.427Z,14.60
2018-06-15T05:45:40.069Z,10.37
2018-06-15T05:48:08.710Z,12.67
2018-06-15T05:50:37.348Z,12.20
2018-06-15T05:53:06.042Z,13.10
2018-06-15T05:55:34.714Z,12.53
2018-06-15T05:58:03.385Z,11.40
2018-06-15T06:00:32.177Z,10.97
2018-06-15T06:03:00.874Z,11.20
2018-06-15T06:05:29.510Z,11.47
2018-06-15T06:07:58.218Z,13.07
2018-06-15T06:10:26.917Z,14.30
2018-06-15T06:12:55.607Z,11.10
2018-06-15T06:15:24.314Z,11.97
2018-06-15T06:17:52.992Z,11.43
2018-06-15T06:20:21.722Z,11.73
2018-06-15T06:22:50.526Z,11.77
2018-06-15T06:25:19.251Z,12.60
2018-06-15T06:27:47.911Z,11.10
2018-06-15T06:30:16.692Z,12.57
2018-06-15T06:32:45.329Z,17.20
2018-06-15T06:35:14.011Z,12.37
2018-06-15T06:37:42.907Z,11.10
2018-06-15T06:40:11.594Z,13.00
2018-06-15T06:42:40.338Z,12.97
2018-06-15T06:45:09.031Z,11.03
2018-06-15T06:47:37.721Z,11.53
2018-06-15T06:50:06.470Z,14.10
2018-06-15T06:52:35.163Z,11.60
2018-06-15T06:55:03.904Z,11.53
2018-06-15T06:57:32.618Z,11.37
2018-06-15T07:00:01.300Z,12.37
2018-06-15T07:02:29.950Z,11.20
2018-06-15T07:04:58.644Z,11.53
2018-06-15T07:07:27.320Z,11.40
2018-06-15T07:09:56.024Z,12.20
2018-06-15T07:12:24.730Z,10.20
2018-06-15T07:14:55.118Z,10.43
2018-06-15T07:17:24.036Z,10.40
2018-06-15T07:19:52.683Z,10.63
2018-06-15T07:22:21.670Z,12.70
2018-06-15T07:24:50.470Z,11.43
2018-06-15T07:27:19.247Z,10.97
2018-06-15T07:29:47.959Z,11.63
2018-06-15T07:32:16.589Z,11.20
2018-06-15T07:34:45.307Z,12.93
2018-06-15T07:37:14.059Z,12.20
2018-06-15T07:39:42.734Z,10.73
2018-06-15T07:42:11.512Z,10.50
2018-06-15T07:44:40.205Z,11.13
2018-06-15T07:47:08.928Z,11.47
2018-06-15T07:49:37.661Z,11.70
2018-06-15T07:52:06.449Z,11.63
2018-06-15T07:54:35.206Z,12.73
2018-06-15T07:57:03.962Z,13.00
2018-06-15T07:59:32.709Z,10.90
2018-06-15T08:02:01.463Z,10.87
2018-06-15T08:04:30.207Z,11.93
2018-06-15T08:06:58.846Z,13.60
2018-06-15T08:09:27.572Z,9.53
2018-06-15T08:11:56.386Z,10.60
2018-06-15T08:14:25.142Z,11.90
2018-06-15T08:16:54.032Z,10.20
2018-06-15T08:19:22.754Z,8.73
2018-06-15T08:21:51.489Z,8.90
2018-06-15T08:24:20.190Z,8.90
2018-06-15T08:26:48.884Z,8.43
2018-06-15T08:29:17.566Z,9.90
2018-06-15T08:31:46.303Z,10.10
2018-06-15T08:34:15.021Z,9.27
2018-06-15T08:36:43.758Z,10.00
2018-06-15T08:39:12.870Z,9.10
2018-06-15T08:41:41.526Z,11.90
2018-06-15T08:44:10.234Z,8.77
2018-06-15T08:46:39.104Z,8.87
2018-06-15T08:49:07.834Z,9.03
2018-06-15T08:51:36.531Z,10.37
2018-06-15T08:54:05.288Z,11.50
2018-06-15T08:56:34.082Z,7.90
2018-06-15T08:59:02.744Z,7.63
2018-06-15T09:01:31.458Z,7.47
2018-06-15T09:04:00.197Z,7.37
2018-06-15T09:06:28.785Z,8.80
2018-06-15T09:08:57.455Z,6.27
2018-06-15T09:11:26.178Z,6.73
2018-06-15T09:13:54.776Z,6.17
2018-06-15T09:16:23.529Z,6.93
2018-06-15T09:18:52.286Z,11.53
2018-06-15T09:21:21.065Z,6.77
2018-06-15T09:23:49.722Z,5.73
2018-06-15T09:26:18.086Z,6.20
2018-06-15T09:28:46.762Z,6.90
2018-06-15T09:31:15.430Z,7.70
2018-06-15T09:33:44.094Z,7.77
2018-06-15T09:36:12.828Z,9.60
2018-06-15T09:38:41.522Z,9.13
2018-06-15T09:41:10.323Z,6.60
2018-06-15T09:43:38.981Z,7.30
2018-06-15T09:46:07.586Z,6.63
2018-06-15T09:48:40.446Z,6.37
2018-06-15T09:51:09.300Z,6.63
2018-06-15T09:53:37.897Z,8.97
2018-06-15T09:56:07.105Z,8.90
2018-06-15T09:58:35.819Z,6.80
2018-06-15T10:01:07.465Z,8.63
2018-06-15T10:03:36.584Z,7.70
2018-06-15T10:06:05.413Z,7.10
2018-06-15T10:08:34.623Z,6.53
2018-06-15T10:11:03.567Z,6.53
2018-06-15T10:13:32.235Z,6.90
2018-06-15T10:16:00.930Z,7.53
2018-06-15T10:18:29.910Z,6.83
2018-06-15T10:20:58.631Z,6.07
2018-06-15T10:23:27.325Z,6.30
2018-06-15T10:25:56.015Z,6.53
2018-06-15T10:28:24.666Z,9.20
2018-06-15T10:30:53.347Z,6.93
2018-06-15T10:33:22.062Z,6.27
2018-06-15T10:35:50.685Z,7.20
2018-06-15T10:38:19.321Z,6.07
2018-06-15T10:40:48.060Z,9.80
2018-06-15T10:43:16.783Z,6.20
2018-06-15T10:45:45.515Z,6.57
2018-06-15T10:48:14.226Z,9.80
2018-06-15T10:50:43.110Z,6.70
2018-06-15T10:53:11.768Z,6.17
2018-06-15T10:55:40.517Z,7.20
2018-06-15T10:58:09.242Z,6.20
2018-06-15T11:00:37.919Z,7.40
2018-06-15T11:03:06.582Z,6.20
2018-06-15T11:05:35.221Z,8.60
2018-06-15T11:08:04.012Z,7.37
2018-06-15T11:10:32.680Z,6.30
2018-06-15T11:13:01.439Z,7.20
2018-06-15T11:15:30.170Z,7.53
2018-06-15T11:17:58.907Z,6.83
2018-06-15T11:20:27.533Z,7.23
2018-06-15T11:22:56.211Z,5.77
2018-06-15T11:25:24.863Z,6.40
2018-06-15T11:27:53.537Z,5.77
2018-06-15T11:30:22.238Z,9.30
2018-06-15T11:32:50.946Z,6.93
2018-06-15T11:35:19.565Z,5.67
2018-06-15T11:37:48.301Z,5.87
2018-06-15T11:40:17.060Z,5.80
2018-06-15T11:42:45.738Z,6.10
2018-06-15T11:45:14.510Z,6.57
2018-06-15T11:47:43.239Z,6.00
2018-06-15T11:50:11.966Z,5.87
2018-06-15T11:52:40.711Z,5.30
2018-06-15T11:55:09.391Z,6.47
2018-06-15T11:57:38.063Z,5.60
2018-06-15T12:00:06.797Z,5.57
2018-06-15T12:02:35.419Z,7.13
2018-06-15T12:05:06.210Z,8.00
2018-06-15T12:07:34.863Z,6.00
2018-06-15T12:10:03.613Z,6.87
2018-06-15T12:12:32.327Z,6.70
2018-06-15T12:15:01.013Z,6.53
2018-06-15T12:17:29.695Z,7.23
2018-06-15T12:19:58.322Z,6.47
2018-06-15T12:22:27.026Z,6.47
2018-06-15T12:24:56.054Z,14.03
2018-06-15T12:27:24.746Z,5.87
2018-06-15T12:29:53.427Z,6.77
2018-06-15T12:32:22.162Z,7.30
2018-06-15T12:34:50.903Z,6.33
2018-06-15T12:37:19.650Z,6.37
2018-06-15T12:39:48.385Z,6.07
2018-06-15T12:42:17.148Z,6.70
2018-06-15T12:44:45.915Z,6.60
2018-06-15T12:47:14.622Z,5.73
2018-06-15T12:49:43.126Z,5.60
2018-06-15T12:52:11.424Z,9.10
2018-06-15T12:54:40.004Z,6.03
2018-06-15T12:57:08.705Z,6.10
2018-06-15T12:59:37.345Z,5.27
2018-06-15T13:02:06.106Z,4.70
2018-06-15T13:04:34.712Z,5.20
2018-06-15T13:07:03.353Z,5.00
2018-06-15T13:09:31.987Z,3.80
2018-06-15T13:12:00.673Z,5.70
2018-06-15T13:14:29.326Z,5.20
2018-06-15T13:16:58.027Z,5.30
2018-06-15T13:19:26.702Z,4.30
2018-06-15T13:21:56.572Z,4.43
2018-06-15T13:24:34.789Z,4.70
2018-06-15T13:27:03.686Z,6.60
2018-06-15T13:29:32.559Z,7.23
2018-06-15T13:32:01.311Z,5.83
2018-06-15T13:34:29.897Z,6.50
2018-06-15T13:36:58.664Z,5.67
2018-06-15T13:39:27.334Z,5.63
2018-06-15T13:41:56.026Z,5.50
2018-06-15T13:44:24.748Z,6.40
2018-06-15T13:46:53.483Z,6.30
2018-06-15T13:49:22.176Z,6.40
2018-06-15T13:51:50.824Z,6.97
2018-06-15T13:54:19.576Z,9.80
2018-06-15T13:56:48.333Z,12.23
2018-06-15T13:59:17.060Z,7.70
2018-06-15T14:01:45.748Z,13.43
2018-06-15T14:04:14.452Z,7.80
2018-06-15T14:06:43.177Z,7.53
2018-06-15T14:09:11.867Z,6.70
2018-06-15T14:11:40.608Z,8.10
2018-06-15T14:14:09.201Z,7.43
2018-06-15T14:16:37.958Z,7.43
2018-06-15T14:19:06.654Z,6.97
2018-06-15T14:21:36.392Z,7.13
2018-06-15T14:24:05.037Z,6.93
2018-06-15T14:26:33.778Z,6.07
2018-06-15T14:29:02.554Z,6.00
2018-06-15T14:31:35.727Z,11.47
2018-06-15T14:37:03.467Z,6.03
2018-06-15T14:39:32.656Z,6.00
2018-06-15T14:42:01.268Z,6.57
2018-06-15T14:44:29.979Z,5.77
2018-06-15T14:46:58.690Z,6.00
2018-06-15T14:49:27.326Z,5.20
2018-06-15T14:51:56.003Z,6.53
2018-06-15T14:54:24.626Z,5.97
2018-06-15T14:56:53.399Z,5.47
2018-06-15T14:59:22.324Z,5.63
2018-06-15T15:01:50.949Z,6.33
2018-06-15T15:04:19.642Z,6.00
2018-06-15T15:06:48.316Z,6.10
2018-06-15T15:09:17.042Z,8.33
2018-06-15T15:11:45.707Z,5.37
2018-06-15T15:14:14.365Z,5.77
2018-06-15T15:16:43.032Z,5.30
2018-06-15T15:19:11.788Z,5.67
2018-06-15T15:21:40.359Z,5.10
2018-06-15T15:24:09.131Z,6.83
2018-06-15T15:26:37.780Z,5.73
2018-06-15T15:29:06.403Z,5.10
2018-06-15T15:31:35.156Z,10.20
2018-06-15T15:34:03.894Z,4.87
2018-06-15T15:36:32.551Z,4.57
2018-06-15T15:39:01.271Z,4.50
2018-06-15T15:41:30.074Z,5.20
2018-06-15T15:43:58.746Z,4.70
2018-06-15T15:46:27.461Z,4.27
2018-06-15T15:48:56.129Z,4.23
2018-06-15T15:51:24.878Z,9.90
2018-06-15T15:53:53.533Z,3.93
2018-06-15T15:56:22.159Z,3.70
2018-06-15T15:58:50.830Z,4.10
2018-06-15T16:01:21.607Z,3.83
2018-06-15T16:03:50.356Z,4.27
2018-06-15T16:06:18.637Z,4.93
2018-06-15T16:08:47.291Z,4.20
2018-06-15T16:11:16.039Z,6.77
2018-06-15T16:13:44.773Z,4.47
2018-06-15T16:16:14.255Z,4.30
2018-06-15T16:18:44.938Z,4.00
2018-06-15T16:21:13.578Z,5.10
2018-06-15T16:23:42.313Z,4.80
2018-06-15T16:26:18.154Z,4.50
2018-06-15T16:28:46.780Z,4.50
2018-06-15T16:31:15.350Z,4.40
2018-06-15T16:33:43.945Z,4.50
2018-06-15T16:36:12.530Z,4.90
2018-06-15T16:38:41.259Z,7.20
2018-06-15T16:41:09.981Z,5.47
2018-06-15T16:43:38.639Z,7.63
2018-06-15T16:46:07.247Z,5.60
2018-06-15T16:48:35.932Z,6.20
2018-06-15T16:51:04.547Z,5.43
2018-06-15T16:53:33.218Z,5.90
2018-06-15T16:56:01.943Z,6.70
2018-06-15T16:58:30.599Z,5.80
2018-06-15T17:00:59.425Z,6.33
2018-06-15T17:03:28.110Z,6.60
2018-06-15T17:05:56.821Z,6.87
2018-06-15T17:08:25.540Z,7.13
2018-06-15T17:10:54.313Z,6.70
2018-06-15T17:13:23.076Z,8.37
2018-06-15T17:15:52.026Z,7.33
2018-06-15T17:18:20.714Z,7.30
2018-06-15T17:20:49.338Z,7.07
2018-06-15T17:23:18.094Z,7.33
2018-06-15T17:25:46.832Z,7.07
2018-06-15T17:28:15.535Z,8.20
2018-06-15T17:30:44.232Z,7.90
2018-06-15T17:33:12.826Z,8.20
2018-06-15T17:35:41.554Z,6.97
2018-06-15T17:38:10.335Z,7.90
2018-06-15T17:40:39.024Z,7.40
2018-06-15T17:43:07.721Z,8.30
2018-06-15T17:45:36.467Z,9.60
2018-06-15T17:48:07.221Z,8.70
2018-06-15T17:50:35.867Z,8.73
2018-06-15T17:53:04.639Z,8.33
2018-06-15T17:55:33.371Z,8.50
2018-06-15T17:58:02.062Z,10.30
2018-06-15T18:00:30.876Z,8.80
2018-06-15T18:02:59.591Z,8.77
2018-06-15T18:05:28.327Z,8.33
2018-06-15T18:07:57.276Z,8.70
2018-06-15T18:10:25.971Z,9.50
2018-06-15T18:12:54.817Z,9.53
2018-06-15T18:15:23.468Z,8.30
2018-06-15T18:17:52.196Z,8.50
2018-06-15T18:20:20.958Z,7.77
2018-06-15T18:22:49.662Z,8.97
2018-06-15T18:25:18.309Z,8.60
2018-06-15T18:27:46.946Z,9.03
2018-06-15T18:30:15.622Z,8.40
2018-06-15T18:32:44.316Z,9.40
2018-06-15T18:35:13.107Z,10.77
2018-06-15T18:37:41.862Z,10.47
2018-06-15T18:40:10.527Z,9.70
2018-06-15T18:42:39.298Z,8.07
2018-06-15T18:45:08.034Z,10.50
2018-06-15T18:47:36.692Z,9.20
2018-06-15T18:50:05.671Z,8.17
2018-06-15T18:52:34.338Z,10.07
2018-06-15T18:55:03.076Z,9.33
2018-06-15T18:57:31.826Z,9.33
2018-06-15T19:03:04.143Z,9.47
2018-06-15T19:05:32.851Z,10.57
2018-06-15T19:08:01.625Z,10.10
2018-06-15T19:10:30.207Z,12.30
2018-06-15T19:12:58.916Z,9.57
2018-06-15T19:15:27.706Z,10.80
2018-06-15T19:17:56.404Z,11.20
2018-06-15T19:20:44.412Z,11.50
2018-06-15T19:23:13.105Z,11.30
2018-06-15T19:25:41.959Z,10.77
2018-06-15T19:28:10.711Z,11.20
2018-06-15T19:30:39.424Z,11.93
2018-06-15T19:33:08.074Z,11.93
2018-06-15T19:35:36.759Z,10.20
2018-06-15T19:38:28.115Z,12.70
2018-06-15T19:40:56.816Z,11.17
2018-06-15T19:43:25.507Z,11.70
2018-06-15T19:45:54.210Z,11.40
2018-06-15T19:48:22.987Z,11.67
2018-06-15T19:50:51.729Z,11.33
2018-06-15T19:53:20.425Z,10.30
2018-06-15T19:55:49.099Z,11.90
2018-06-15T19:58:17.822Z,12.03
2018-06-15T20:00:46.542Z,12.00
2018-06-15T20:03:17.341Z,12.30
2018-06-15T20:05:46.049Z,12.33
2018-06-15T20:08:14.803Z,13.03
2018-06-15T20:10:43.653Z,12.20
2018-06-15T20:13:12.431Z,12.23
2018-06-15T20:15:41.888Z,12.47
2018-06-15T20:18:10.691Z,12.30
2018-06-15T20:20:39.369Z,13.80
2018-06-15T20:23:08.119Z,12.53
2018-06-15T20:25:36.746Z,12.53
2018-06-15T20:28:05.506Z,12.73
2018-06-15T20:30:34.229Z,16.77
2018-06-15T20:33:02.986Z,13.40
2018-06-15T20:35:31.716Z,11.63
2018-06-15T20:38:00.014Z,13.03
2018-06-15T20:40:28.655Z,12.10
2018-06-15T20:42:57.342Z,12.77
2018-06-15T20:45:26.134Z,13.10
2018-06-15T20:47:54.877Z,12.00
2018-06-15T20:50:23.646Z,11.43
2018-06-15T20:52:52.312Z,12.10
2018-06-15T20:55:21.022Z,12.50
2018-06-15T20:57:49.890Z,12.40
2018-06-15T21:00:18.627Z,13.37
2018-06-15T21:02:47.387Z,12.13
2018-06-15T21:05:16.077Z,13.50
2018-06-15T21:07:44.797Z,13.07
2018-06-15T21:10:13.584Z,13.57
2018-06-15T21:12:42.671Z,16.03
2018-06-15T21:15:11.328Z,15.33
2018-06-15T21:17:40.001Z,13.93
2018-06-15T21:20:08.789Z,14.93
2018-06-15T21:22:37.522Z,13.80
2018-06-15T21:25:06.546Z,12.67
2018-06-15T21:27:35.278Z,12.27
2018-06-15T21:30:03.948Z,16.03
2018-06-15T21:32:32.647Z,13.80
2018-06-15T21:35:01.365Z,14.40
2018-06-15T21:37:30.107Z,16.70
2018-06-15T21:39:58.781Z,14.33
2018-06-15T21:42:27.540Z,13.90
2018-06-15T21:44:56.195Z,12.20
2018-06-15T21:47:24.926Z,13.30
2018-06-15T21:49:53.535Z,15.03
2018-06-15T21:52:22.260Z,18.50
2018-06-15T21:54:50.906Z,12.80
2018-06-15T21:57:19.595Z,12.80
2018-06-15T21:59:48.365Z,12.40
2018-06-15T22:02:17.124Z,13.30
2018-06-15T22:04:45.857Z,14.10
2018-06-15T22:10:28.028Z,13.10
2018-06-15T22:12:56.700Z,14.00
2018-06-15T22:15:25.366Z,14.77
2018-06-15T22:17:54.094Z,14.13
2018-06-15T22:20:22.813Z,14.67
2018-06-15T22:22:51.671Z,13.30
2018-06-15T22:25:20.377Z,12.30
2018-06-15T22:27:49.172Z,13.07
2018-06-15T22:30:17.524Z,14.40
2018-06-15T22:32:46.269Z,13.53
2018-06-15T22:35:14.974Z,13.67
2018-06-15T22:37:43.641Z,13.60
2018-06-15T22:40:12.298Z,14.60
2018-06-15T22:42:41.007Z,12.40
2018-06-15T22:45:09.703Z,12.73
2018-06-15T22:47:38.447Z,12.43
2018-06-15T22:50:07.216Z,13.50
2018-06-15T22:52:35.883Z,14.73
2018-06-15T22:55:04.593Z,13.03
2018-06-15T22:57:33.222Z,13.07
2018-06-15T23:00:01.982Z,13.97
2018-06-15T23:02:30.235Z,13.53
2018-06-15T23:04:58.888Z,13.20
2018-06-15T23:07:27.579Z,12.77
2018-06-15T23:09:56.293Z,13.30
2018-06-15T23:12:24.977Z,14.83
2018-06-15T23:14:53.654Z,14.00
2018-06-15T23:17:22.358Z,12.93
2018-06-15T23:19:51.027Z,14.13
2018-06-15T23:22:19.687Z,14.20
2018-06-15T23:24:48.378Z,13.07
2018-06-15T23:27:17.078Z,14.00
2018-06-15T23:29:45.828Z,14.03
2018-06-15T23:32:14.492Z,18.30
2018-06-15T23:34:43.195Z,15.77
2018-06-15T23:37:11.892Z,15.67
2018-06-15T23:39:40.595Z,17.40
2018-06-15T23:42:09.437Z,16.20
2018-06-15T23:44:38.139Z,18.10
2018-06-15T23:53:03.073Z,18.50
2018-06-15T23:55:31.706Z,18.43
2018-06-15T23:58:00.451Z,17.97
